createdAt,value
2018-04-19T00:00:54.459Z,14.60
2018-04-19T00:03:22.003Z,14.50
2018-04-19T00:05:49.464Z,14.50
2018-04-19T00:08:17.006Z,14.40
2018-04-19T00:10:44.492Z,14.40
2018-04-19T00:13:12.040Z,14.30
2018-04-19T00:15:39.476Z,14.40
2018-04-19T00:18:06.920Z,14.30
2018-04-19T00:20:34.404Z,14.20
2018-04-19T00:23:01.864Z,14.10
2018-04-19T00:25:29.317Z,14.10
2018-04-19T00:27:56.759Z,14.00
2018-04-19T00:30:24.198Z,13.90
2018-04-19T00:32:52.407Z,13.70
2018-04-19T00:35:19.846Z,13.70
2018-04-19T00:37:47.295Z,13.70
2018-04-19T00:40:15.492Z,13.70
2018-04-19T00:42:42.971Z,13.70
2018-04-19T00:45:11.422Z,13.70
2018-04-19T00:47:38.899Z,13.60
2018-04-19T00:50:06.331Z,13.60
2018-04-19T00:52:45.743Z,13.60
2018-04-19T00:55:13.975Z,13.40
2018-04-19T00:57:41.423Z,13.40
2018-04-19T01:00:08.886Z,13.40
2018-04-19T01:02:36.332Z,13.30
2018-04-19T01:05:03.800Z,13.20
2018-04-19T01:07:32.009Z,13.20
2018-04-19T01:09:59.568Z,13.20
2018-04-19T01:12:27.027Z,13.20
2018-04-19T01:14:54.962Z,13.20
2018-04-19T01:17:23.199Z,13.10
2018-04-19T01:19:50.732Z,13.10
2018-04-19T01:22:18.199Z,13.00
2018-04-19T01:24:45.620Z,12.90
2018-04-19T01:27:13.120Z,12.90
2018-04-19T01:29:40.552Z,12.90
2018-04-19T01:32:08.025Z,12.80
2018-04-19T01:34:35.585Z,12.70
2018-04-19T01:37:03.833Z,12.70
2018-04-19T01:39:31.376Z,12.70
2018-04-19T01:41:58.851Z,12.70
2018-04-19T01:44:26.372Z,12.70
2018-04-19T01:46:53.875Z,12.70
2018-04-19T01:49:21.311Z,12.70
2018-04-19T01:51:48.734Z,12.70
2018-04-19T01:54:16.183Z,12.70
2018-04-19T01:56:43.794Z,12.60
2018-04-19T01:59:11.354Z,12.60
2018-04-19T02:01:38.799Z,12.60
2018-04-19T02:04:06.237Z,12.60
2018-04-19T02:06:33.668Z,12.60
2018-04-19T02:09:01.109Z,12.50
2018-04-19T02:11:29.318Z,12.50
2018-04-19T02:13:56.762Z,12.40
2018-04-19T02:16:24.219Z,12.40
2018-04-19T02:18:51.749Z,12.30
2018-04-19T02:21:19.957Z,12.20
2018-04-19T02:23:47.406Z,12.20
2018-04-19T02:26:14.914Z,12.30
2018-04-19T02:28:42.354Z,12.20
2018-04-19T02:31:09.797Z,12.30
2018-04-19T02:33:37.248Z,12.30
2018-04-19T02:36:04.691Z,12.30
2018-04-19T02:38:32.183Z,12.20
2018-04-19T02:40:59.614Z,12.20
2018-04-19T02:43:27.093Z,12.20
2018-04-19T02:45:54.574Z,12.20
2018-04-19T02:48:22.019Z,12.20
2018-04-19T02:50:49.450Z,12.20
2018-04-19T02:53:16.880Z,12.10
2018-04-19T02:55:44.326Z,12.10
2018-04-19T02:58:11.747Z,12.10
2018-04-19T03:00:39.287Z,12.10
2018-04-19T03:03:06.732Z,12.10
2018-04-19T03:05:34.195Z,12.00
2018-04-19T03:08:01.691Z,12.00
2018-04-19T03:10:29.123Z,11.90
2018-04-19T03:12:56.682Z,11.90
2018-04-19T03:15:24.113Z,11.80
2018-04-19T03:17:51.623Z,11.70
2018-04-19T03:20:19.058Z,11.70
2018-04-19T03:22:46.504Z,11.70
2018-04-19T03:25:13.969Z,11.60
2018-04-19T03:27:41.421Z,11.60
2018-04-19T03:30:08.863Z,11.60
2018-04-19T03:32:36.293Z,11.60
2018-04-19T03:35:04.502Z,11.60
2018-04-19T03:37:31.961Z,11.60
2018-04-19T03:39:59.427Z,11.60
2018-04-19T03:42:26.861Z,11.60
2018-04-19T03:44:54.306Z,11.60
2018-04-19T03:47:21.803Z,11.60
2018-04-19T03:49:49.359Z,11.60
2018-04-19T03:52:16.823Z,11.50
2018-04-19T03:54:44.275Z,11.50
2018-04-19T03:57:11.721Z,11.50
2018-04-19T03:59:39.187Z,11.40
2018-04-19T04:02:06.641Z,11.40
2018-04-19T04:04:34.107Z,11.40
2018-04-19T04:07:01.559Z,11.30
2018-04-19T04:09:29.115Z,11.30
2018-04-19T04:11:56.532Z,11.20
2018-04-19T04:14:24.891Z,11.20
2018-04-19T04:17:04.169Z,11.10
2018-04-19T04:19:43.403Z,11.10
2018-04-19T04:22:22.721Z,11.10
2018-04-19T04:24:50.931Z,10.90
2018-04-19T04:27:18.370Z,10.90
2018-04-19T04:29:45.803Z,10.90
2018-04-19T04:32:14.015Z,11.00
2018-04-19T04:34:41.452Z,10.90
2018-04-19T04:37:08.903Z,11.00
2018-04-19T04:39:36.342Z,10.90
2018-04-19T04:42:04.552Z,10.80
2018-04-19T04:44:31.975Z,10.80
2018-04-19T04:47:00.913Z,10.80
2018-04-19T04:49:28.360Z,10.80
2018-04-19T04:51:55.832Z,10.80
2018-04-19T04:54:23.272Z,10.90
2018-04-19T04:56:50.707Z,10.80
2018-04-19T04:59:18.939Z,10.80
2018-04-19T05:01:46.400Z,10.80
2018-04-19T05:04:13.959Z,10.80
2018-04-19T05:06:41.403Z,10.80
2018-04-19T05:09:08.848Z,10.90
2018-04-19T05:11:36.279Z,10.90
2018-04-19T05:14:03.803Z,10.90
2018-04-19T05:16:31.239Z,10.90
2018-04-19T05:18:58.685Z,10.90
2018-04-19T05:21:26.136Z,10.80
2018-04-19T05:23:53.584Z,10.90
2018-04-19T05:26:21.040Z,10.90
2018-04-19T05:28:48.498Z,11.00
2018-04-19T05:31:15.981Z,11.00
2018-04-19T05:33:43.428Z,11.10
2018-04-19T05:36:10.875Z,11.10
2018-04-19T05:38:38.327Z,11.10
2018-04-19T05:41:05.817Z,11.20
2018-04-19T05:43:33.243Z,11.30
2018-04-19T05:46:00.699Z,11.30
2018-04-19T05:48:28.166Z,11.40
2018-04-19T05:50:55.700Z,11.50
2018-04-19T05:53:23.189Z,11.50
2018-04-19T05:55:50.628Z,11.60
2018-04-19T05:58:18.053Z,11.70
2018-04-19T06:00:45.522Z,11.80
2018-04-19T06:03:13.030Z,11.80
2018-04-19T06:05:40.575Z,11.90
2018-04-19T06:08:08.020Z,12.10
2018-04-19T06:10:35.486Z,12.20
2018-04-19T06:13:02.931Z,12.30
2018-04-19T06:15:30.375Z,12.40
2018-04-19T06:17:57.848Z,12.50
2018-04-19T06:20:25.279Z,12.60
2018-04-19T06:22:52.723Z,12.80
2018-04-19T06:25:20.936Z,13.00
2018-04-19T06:27:48.375Z,13.00
2018-04-19T06:30:15.850Z,13.20
2018-04-19T06:32:43.308Z,13.40
2018-04-19T06:35:10.739Z,13.60
2018-04-19T06:37:38.193Z,13.80
2018-04-19T06:40:05.688Z,14.00
2018-04-19T06:42:33.128Z,14.40
2018-04-19T06:45:00.603Z,14.60
2018-04-19T06:47:28.035Z,14.80
2018-04-19T06:49:55.524Z,15.00
2018-04-19T06:52:23.275Z,15.20
2018-04-19T06:54:50.687Z,15.40
2018-04-19T06:57:18.927Z,16.00
2018-04-19T06:59:46.357Z,15.90
2018-04-19T07:02:13.825Z,16.20
2018-04-19T07:04:41.271Z,16.50
2018-04-19T07:07:08.707Z,16.70
2018-04-19T07:09:37.026Z,17.10
2018-04-19T07:12:04.499Z,17.10
2018-04-19T07:14:31.931Z,17.30
2018-04-19T07:16:59.400Z,17.40
2018-04-19T07:19:26.850Z,17.70
2018-04-19T07:21:54.312Z,17.80
2018-04-19T07:24:21.731Z,18.00
2018-04-19T07:26:49.193Z,18.10
2018-04-19T07:29:17.399Z,18.40
2018-04-19T07:31:44.867Z,18.40
2018-04-19T07:34:12.329Z,18.50
2018-04-19T07:36:39.775Z,18.70
2018-04-19T07:39:07.252Z,18.80
2018-04-19T07:41:34.661Z,18.90
2018-04-19T07:44:02.154Z,19.10
2018-04-19T07:46:29.602Z,19.20
2018-04-19T07:48:57.068Z,19.40
2018-04-19T07:51:24.593Z,19.50
2018-04-19T07:53:51.999Z,19.70
2018-04-19T07:56:19.513Z,19.80
2018-04-19T07:58:46.989Z,19.90
2018-04-19T08:01:14.463Z,20.10
2018-04-19T08:03:41.909Z,20.30
2018-04-19T08:06:09.362Z,20.40
2018-04-19T08:08:36.816Z,20.50
2018-04-19T08:11:04.380Z,20.60
2018-04-19T08:13:31.839Z,20.70
2018-04-19T08:15:59.387Z,20.80
2018-04-19T08:18:26.855Z,20.90
2018-04-19T08:20:54.311Z,21.10
2018-04-19T08:23:21.787Z,21.20
2018-04-19T08:25:49.235Z,21.30
2018-04-19T08:28:16.685Z,21.40
2018-04-19T08:30:44.142Z,21.50
2018-04-19T08:33:11.602Z,21.70
2018-04-19T08:35:39.031Z,21.80
2018-04-19T08:38:06.491Z,21.90
2018-04-19T08:40:33.909Z,22.00
2018-04-19T08:43:02.124Z,22.20
2018-04-19T08:45:29.597Z,22.20
2018-04-19T08:47:57.049Z,22.30
2018-04-19T08:50:24.529Z,22.30
2018-04-19T08:52:51.966Z,22.40
2018-04-19T08:55:19.417Z,22.50
2018-04-19T08:57:46.857Z,22.60
2018-04-19T09:00:14.346Z,22.80
2018-04-19T09:02:41.845Z,22.80
2018-04-19T09:05:09.252Z,22.90
2018-04-19T09:07:36.699Z,23.00
2018-04-19T09:10:04.158Z,23.10
2018-04-19T09:12:31.579Z,23.30
2018-04-19T09:14:59.814Z,23.50
2018-04-19T09:17:27.364Z,23.50
2018-04-19T09:19:54.821Z,23.60
2018-04-19T09:22:22.290Z,23.70
2018-04-19T09:24:49.720Z,23.80
2018-04-19T09:27:17.171Z,23.90
2018-04-19T09:29:44.603Z,24.00
2018-04-19T09:32:12.819Z,24.30
2018-04-19T09:34:40.276Z,24.30
2018-04-19T09:37:07.717Z,24.40
2018-04-19T09:39:35.213Z,24.40
2018-04-19T09:42:02.612Z,24.50
2018-04-19T09:44:30.107Z,24.60
2018-04-19T09:46:57.563Z,24.70
2018-04-19T09:49:25.404Z,24.80
2018-04-19T09:51:52.856Z,24.90
2018-04-19T09:54:21.984Z,25.00
2018-04-19T09:56:49.433Z,25.00
2018-04-19T09:59:16.867Z,25.10
2018-04-19T10:01:50.098Z,25.20
2018-04-19T10:04:23.914Z,25.30
2018-04-19T10:06:52.236Z,25.40
2018-04-19T10:09:19.688Z,25.40
2018-04-19T10:11:47.136Z,25.50
2018-04-19T10:14:14.578Z,25.60
2018-04-19T10:16:42.067Z,25.70
2018-04-19T10:19:09.518Z,25.60
2018-04-19T10:21:36.975Z,25.80
2018-04-19T10:24:04.423Z,25.80
2018-04-19T10:26:31.865Z,25.90
2018-04-19T10:28:59.305Z,25.90
2018-04-19T10:31:27.531Z,26.10
2018-04-19T10:33:54.971Z,26.00
2018-04-19T10:36:22.414Z,26.10
2018-04-19T10:38:49.893Z,26.20
2018-04-19T10:41:17.392Z,26.30
2018-04-19T10:43:44.818Z,26.30
2018-04-19T10:46:12.261Z,26.40
2018-04-19T10:48:39.702Z,26.50
2018-04-19T10:51:07.140Z,26.50
2018-04-19T10:53:35.359Z,26.80
2018-04-19T10:56:02.808Z,26.70
2018-04-19T10:58:30.271Z,26.90
2018-04-19T11:00:57.783Z,27.00
2018-04-19T11:03:25.159Z,27.00
2018-04-19T11:05:52.638Z,27.10
2018-04-19T11:08:20.106Z,27.10
2018-04-19T11:10:47.546Z,27.10
2018-04-19T11:13:15.019Z,27.10
2018-04-19T11:15:42.794Z,27.10
2018-04-19T11:18:10.555Z,27.20
2018-04-19T11:20:37.995Z,27.20
2018-04-19T11:23:05.427Z,27.30
2018-04-19T11:25:32.924Z,27.40
2018-04-19T11:28:00.354Z,27.40
2018-04-19T11:30:27.896Z,27.40
2018-04-19T11:32:55.388Z,27.40
2018-04-19T11:35:22.851Z,27.40
2018-04-19T11:37:50.312Z,27.50
2018-04-19T11:40:17.791Z,27.60
2018-04-19T11:42:45.340Z,27.70
2018-04-19T11:45:12.767Z,27.70
2018-04-19T11:47:40.271Z,27.70
2018-04-19T11:50:07.800Z,27.70
2018-04-19T11:52:35.243Z,27.80
2018-04-19T11:55:02.710Z,27.70
2018-04-19T11:57:30.153Z,27.70
2018-04-19T11:59:57.636Z,27.70
2018-04-19T12:02:25.188Z,27.80
2018-04-19T12:04:52.634Z,27.80
2018-04-19T12:07:20.069Z,27.90
2018-04-19T12:09:47.504Z,28.00
2018-04-19T12:12:15.718Z,28.20
2018-04-19T12:14:43.210Z,28.10
2018-04-19T12:17:10.649Z,28.20
2018-04-19T12:19:38.104Z,28.30
2018-04-19T12:22:05.580Z,28.40
2018-04-19T12:24:33.060Z,28.50
2018-04-19T12:27:00.481Z,28.50
2018-04-19T12:29:27.925Z,28.50
2018-04-19T12:31:55.359Z,28.50
2018-04-19T12:34:22.811Z,28.60
2018-04-19T12:36:50.243Z,28.70
2018-04-19T12:39:17.687Z,28.70
2018-04-19T12:41:46.636Z,28.90
2018-04-19T12:44:14.100Z,28.90
2018-04-19T12:46:41.515Z,29.00
2018-04-19T12:49:09.727Z,29.10
2018-04-19T12:51:37.210Z,29.00
2018-04-19T12:54:04.761Z,29.00
2018-04-19T12:56:32.237Z,29.20
2018-04-19T12:58:59.677Z,29.10
2018-04-19T13:01:27.115Z,29.10
2018-04-19T13:03:54.572Z,29.10
2018-04-19T13:06:22.010Z,29.30
2018-04-19T13:08:49.492Z,29.30
2018-04-19T13:11:16.923Z,29.40
2018-04-19T13:13:44.400Z,29.40
2018-04-19T13:16:11.903Z,29.40
2018-04-19T13:18:39.348Z,29.50
2018-04-19T13:21:06.772Z,29.60
2018-04-19T13:23:34.220Z,29.70
2018-04-19T13:26:01.701Z,29.80
2018-04-19T13:28:29.636Z,29.90
2018-04-19T13:30:57.131Z,29.80
2018-04-19T13:33:24.578Z,29.80
2018-04-19T13:35:52.027Z,30.00
2018-04-19T13:38:19.484Z,30.10
2018-04-19T13:40:46.951Z,30.10
2018-04-19T13:43:14.508Z,30.20
2018-04-19T13:45:41.963Z,30.10
2018-04-19T13:48:10.232Z,30.10
2018-04-19T13:50:37.674Z,30.00
2018-04-19T13:53:05.212Z,30.20
2018-04-19T13:55:32.684Z,30.20
2018-04-19T13:58:00.243Z,30.30
2018-04-19T14:00:27.683Z,30.40
2018-04-19T14:02:55.150Z,30.30
2018-04-19T14:05:22.588Z,30.40
2018-04-19T14:07:50.022Z,30.50
2018-04-19T14:10:18.239Z,30.50
2018-04-19T14:12:45.707Z,30.60
2018-04-19T14:15:13.186Z,30.70
2018-04-19T14:17:40.615Z,30.90
2018-04-19T14:20:08.831Z,31.20
2018-04-19T14:22:36.261Z,31.10
2018-04-19T14:25:04.479Z,31.30
2018-04-19T14:27:31.938Z,31.30
2018-04-19T14:29:59.374Z,31.40
2018-04-19T14:32:26.881Z,31.50
2018-04-19T14:34:54.322Z,31.60
2018-04-19T14:37:21.808Z,31.60
2018-04-19T14:39:49.339Z,31.60
2018-04-19T14:42:16.804Z,31.70
2018-04-19T14:44:44.235Z,31.90
2018-04-19T14:47:11.668Z,32.00
2018-04-19T14:49:40.423Z,32.00
2018-04-19T14:52:08.775Z,32.20
2018-04-19T14:54:36.199Z,32.10
2018-04-19T14:57:03.692Z,32.20
2018-04-19T14:59:31.274Z,32.30
2018-04-19T15:01:59.631Z,32.50
2018-04-19T15:04:27.392Z,32.70
2018-04-19T15:06:54.824Z,32.80
2018-04-19T15:09:22.262Z,32.80
2018-04-19T15:11:50.483Z,32.80
2018-04-19T15:14:17.931Z,32.80
2018-04-19T15:16:45.372Z,32.80
2018-04-19T15:19:12.810Z,32.80
2018-04-19T15:21:41.018Z,33.10
2018-04-19T15:24:08.456Z,33.00
2018-04-19T15:26:35.938Z,33.10
2018-04-19T15:29:03.387Z,33.10
2018-04-19T15:31:30.817Z,33.10
2018-04-19T15:33:58.288Z,33.30
2018-04-19T15:36:25.740Z,33.40
2018-04-19T15:38:53.223Z,33.70
2018-04-19T15:41:20.828Z,33.90
2018-04-19T15:43:48.264Z,34.00
2018-04-19T15:46:15.744Z,34.10
2018-04-19T15:48:43.192Z,34.30
2018-04-19T15:51:10.624Z,34.50
2018-04-19T15:53:38.917Z,34.70
2018-04-19T15:56:06.664Z,34.70
2018-04-19T15:58:34.102Z,34.70
2018-04-19T16:01:02.327Z,34.90
2018-04-19T16:03:29.821Z,34.90
2018-04-19T16:05:58.601Z,35.10
2018-04-19T16:08:26.071Z,35.30
2018-04-19T16:10:53.540Z,35.50
2018-04-19T16:13:21.736Z,36.00
2018-04-19T16:15:49.173Z,35.90
2018-04-19T16:18:17.379Z,34.40
2018-04-19T16:20:44.835Z,34.40
2018-04-19T16:23:12.263Z,33.40
2018-04-19T16:25:40.468Z,31.80
2018-04-19T16:28:07.986Z,31.80
2018-04-19T16:30:36.191Z,30.80
2018-04-19T16:33:03.728Z,30.80
2018-04-19T16:35:32.649Z,30.20
2018-04-19T16:38:00.106Z,30.20
2018-04-19T16:40:27.662Z,30.00
2018-04-19T16:42:55.044Z,29.70
2018-04-19T16:45:22.477Z,29.50
2018-04-19T16:47:49.937Z,29.40
2018-04-19T16:50:17.363Z,29.30
2018-04-19T16:52:45.555Z,29.10
2018-04-19T16:55:13.024Z,29.10
2018-04-19T16:57:40.443Z,28.90
2018-04-19T17:00:08.670Z,28.70
2018-04-19T17:02:36.129Z,28.70
2018-04-19T17:05:03.675Z,28.60
2018-04-19T17:07:31.151Z,28.40
2018-04-19T17:09:58.604Z,28.40
2018-04-19T17:12:26.035Z,28.30
2018-04-19T17:14:53.511Z,28.20
2018-04-19T17:17:20.983Z,28.20
2018-04-19T17:19:48.428Z,28.20
2018-04-19T17:22:15.890Z,28.10
2018-04-19T17:24:43.361Z,28.00
2018-04-19T17:27:11.577Z,27.90
2018-04-19T17:29:41.077Z,27.90
2018-04-19T17:32:09.287Z,27.80
2018-04-19T17:34:36.760Z,27.70
2018-04-19T17:37:04.218Z,27.70
2018-04-19T17:39:31.659Z,27.60
2018-04-19T17:41:59.096Z,27.60
2018-04-19T17:44:26.541Z,27.50
2018-04-19T17:46:54.857Z,27.40
2018-04-19T17:49:22.278Z,27.40
2018-04-19T17:51:50.487Z,27.20
2018-04-19T17:54:17.928Z,27.20
2018-04-19T17:56:45.371Z,27.20
2018-04-19T17:59:12.802Z,27.10
2018-04-19T18:01:40.239Z,27.00
2018-04-19T18:04:07.667Z,27.00
2018-04-19T18:06:35.127Z,26.90
2018-04-19T18:09:02.588Z,26.80
2018-04-19T18:11:30.020Z,26.80
2018-04-19T18:13:57.493Z,26.70
2018-04-19T18:16:24.941Z,26.70
2018-04-19T18:18:52.371Z,26.60
2018-04-19T18:21:20.592Z,26.50
2018-04-19T18:23:48.042Z,26.40
2018-04-19T18:26:15.519Z,26.40
2018-04-19T18:28:42.957Z,26.40
2018-04-19T18:31:10.388Z,26.30
2018-04-19T18:33:37.835Z,26.30
2018-04-19T18:36:06.028Z,26.20
2018-04-19T18:38:33.524Z,26.20
2018-04-19T18:41:00.962Z,26.20
2018-04-19T18:43:28.408Z,26.10
2018-04-19T18:45:55.843Z,26.10
2018-04-19T18:48:23.339Z,26.10
2018-04-19T18:50:50.799Z,26.00
2018-04-19T18:53:18.248Z,25.80
2018-04-19T18:55:45.718Z,25.70
2018-04-19T18:58:13.241Z,25.60
2018-04-19T19:00:41.436Z,25.40
2018-04-19T19:03:08.888Z,25.30
2018-04-19T19:05:36.331Z,25.20
2018-04-19T19:08:03.823Z,25.10
2018-04-19T19:10:31.371Z,25.00
2018-04-19T19:12:58.845Z,24.90
2018-04-19T19:18:48.199Z,24.40
2018-04-19T19:21:15.632Z,24.40
2018-04-19T19:23:43.847Z,24.20
2018-04-19T19:26:11.287Z,24.10
2018-04-19T19:28:38.725Z,24.00
2018-04-19T19:31:06.938Z,23.70
2018-04-19T19:33:34.416Z,23.70
2018-04-19T19:36:04.926Z,23.40
2018-04-19T19:38:32.363Z,23.40
2018-04-19T19:40:59.823Z,23.30
2018-04-19T19:43:27.308Z,23.30
2018-04-19T19:45:54.739Z,23.20
2018-04-19T19:48:22.176Z,23.00
2018-04-19T19:50:50.478Z,22.80
2018-04-19T19:53:17.918Z,22.80
2018-04-19T19:55:46.123Z,22.60
2018-04-19T19:58:13.579Z,22.50
2018-04-19T20:00:41.010Z,22.50
2018-04-19T20:03:08.439Z,22.30
2018-04-19T20:05:35.867Z,22.30
2018-04-19T20:08:03.301Z,22.20
2018-04-19T20:10:30.776Z,22.00
2018-04-19T20:12:58.230Z,21.90
2018-04-19T20:15:25.663Z,21.80
2018-04-19T20:17:53.112Z,21.70
2018-04-19T20:20:21.335Z,21.50
2018-04-19T20:22:48.874Z,21.50
2018-04-19T20:25:16.334Z,21.40
2018-04-19T20:27:43.879Z,21.30
2018-04-19T20:30:11.352Z,21.30
2018-04-19T20:32:38.811Z,21.20
2018-04-19T20:35:06.368Z,21.00
2018-04-19T20:37:33.822Z,21.00
2018-04-19T20:40:01.279Z,20.90
2018-04-19T20:42:28.741Z,20.80
2018-04-19T20:44:56.184Z,20.70
2018-04-19T20:47:23.832Z,20.60
2018-04-19T20:49:51.369Z,20.60
2018-04-19T20:52:18.799Z,20.50
2018-04-19T20:54:46.239Z,20.50
2018-04-19T20:57:13.716Z,20.30
2018-04-19T20:59:41.161Z,20.30
2018-04-19T21:02:08.753Z,20.20
2018-04-19T21:04:38.096Z,20.00
2018-04-19T21:07:05.520Z,19.90
2018-04-19T21:09:33.728Z,19.80
2018-04-19T21:12:01.172Z,19.80
2018-04-19T21:14:29.072Z,19.70
2018-04-19T21:16:56.500Z,19.60
2018-04-19T21:19:23.956Z,19.60
2018-04-19T21:21:51.425Z,19.60
2018-04-19T21:24:18.926Z,19.60
2018-04-19T21:26:46.359Z,19.50
2018-04-19T21:29:13.807Z,19.50
2018-04-19T21:31:41.240Z,19.40
2018-04-19T21:34:08.959Z,19.40
2018-04-19T21:36:36.480Z,19.40
2018-04-19T21:39:03.958Z,19.40
2018-04-19T21:41:31.395Z,19.30
2018-04-19T21:43:58.851Z,19.20
2018-04-19T21:46:26.335Z,19.10
2018-04-19T21:48:53.792Z,19.00
2018-04-19T21:51:21.288Z,18.80
2018-04-19T21:53:49.489Z,18.60
2018-04-19T21:56:16.981Z,18.60
2018-04-19T21:58:44.413Z,18.50
2018-04-19T22:01:11.856Z,18.40
2018-04-19T22:03:39.337Z,18.30
2018-04-19T22:06:07.501Z,18.30
2018-04-19T22:08:34.928Z,18.20
2018-04-19T22:11:03.168Z,17.90
2018-04-19T22:13:30.598Z,17.80
2018-04-19T22:15:58.033Z,17.80
2018-04-19T22:18:25.514Z,17.60
2018-04-19T22:20:52.947Z,17.50
2018-04-19T22:23:20.432Z,17.60
2018-04-19T22:25:47.867Z,17.50
2018-04-19T22:28:15.744Z,17.50
2018-04-19T22:30:43.246Z,17.60
2018-04-19T22:33:10.662Z,17.60
2018-04-19T22:35:38.115Z,17.60
2018-04-19T22:38:05.545Z,17.60
2018-04-19T22:40:33.838Z,17.60
2018-04-19T22:43:01.267Z,17.60
2018-04-19T22:45:29.483Z,17.60
2018-04-19T22:47:56.947Z,17.60
2018-04-19T22:50:24.395Z,17.60
2018-04-19T22:52:51.866Z,17.60
2018-04-19T22:55:19.313Z,17.50
2018-04-19T22:57:46.803Z,17.50
2018-04-19T23:00:14.220Z,17.50
2018-04-19T23:02:41.799Z,17.50
2018-04-19T23:05:09.247Z,17.40
2018-04-19T23:07:36.679Z,17.50
2018-04-19T23:10:04.167Z,17.40
2018-04-19T23:12:31.608Z,17.40
2018-04-19T23:14:59.047Z,17.30
2018-04-19T23:17:26.487Z,17.20
2018-04-19T23:19:54.711Z,17.00
2018-04-19T23:22:34.159Z,17.00
2018-04-19T23:25:01.623Z,17.00
2018-04-19T23:27:29.067Z,17.00
2018-04-19T23:29:56.507Z,16.90
2018-04-19T23:32:23.970Z,16.80
2018-04-19T23:34:51.413Z,16.70
2018-04-19T23:37:18.883Z,16.60
2018-04-19T23:39:46.331Z,16.60
2018-04-19T23:42:13.780Z,16.60
2018-04-19T23:44:41.358Z,16.60
2018-04-19T23:47:08.805Z,16.60
2018-04-19T23:49:36.237Z,16.60
2018-04-19T23:52:04.454Z,16.60
2018-04-19T23:54:31.892Z,16.60
2018-04-19T23:56:59.322Z,16.60
2018-04-19T23:59:27.534Z,16.50
